General Alvear, Argentina
Current Conditions -  °F | °C
As of 11:00 AM on Sunday 25 Jan 2015 (Local Time) from SAME Reporting Station
Few Clouds Few Clouds  
Wind Chill: 86°   Ceiling: Unl
Heat Index: 86°   Visibility: 6mi
Dew Point: 55°   Wind: 9mph
Humidity: 35%   Direction: 140°SE
Pressure: 29.91"   Gusts: NA
Location:  34.97°S, 67.7°W
Report Text: SAME 251400Z 14008KT 9999 FEW045CB FEW050TCU30/13 Q1013
Loading
Personal Weather Stations






























Interactive Weather Map New forecast layout! Learn more

10-Day Weather Forecast

Advertisements
Track Severe Weather on mobile